sensor_id;sensor_type;location;lat;lon;timestamp;P1;durP1;ratioP1;P2;durP2;ratioP2
4517;SDS011;2271;49.464;11.070;2023-02-22T00:00:35;5.47;;;4.60;;
4517;SDS011;2271;49.464;11.070;2023-02-22T00:03:08;5.63;;;4.00;;
4517;SDS011;2271;49.464;11.070;2023-02-22T00:05:36;4.90;;;3.97;;
4517;SDS011;2271;49.464;11.070;2023-02-22T00:08:05;5.03;;;4.37;;
4517;SDS011;2271;49.464;11.070;2023-02-22T00:10:35;7.17;;;4.13;;
4517;SDS011;2271;49.464;11.070;2023-02-22T00:13:03;3.60;;;2.93;;
4517;SDS011;2271;49.464;11.070;2023-02-22T00:15:30;5.00;;;3.90;;
4517;SDS011;2271;49.464;11.070;2023-02-22T00:17:57;4.73;;;3.77;;
4517;SDS011;2271;49.464;11.070;2023-02-22T00:20:23;6.87;;;4.10;;
4517;SDS011;2271;49.464;11.070;2023-02-22T00:22:49;4.27;;;3.73;;
4517;SDS011;2271;49.464;11.070;2023-02-22T00:25:17;6.33;;;3.90;;
4517;SDS011;2271;49.464;11.070;2023-02-22T00:27:45;16.90;;;4.43;;
4517;SDS011;2271;49.464;11.070;2023-02-22T00:30:20;5.43;;;3.93;;
4517;SDS011;2271;49.464;11.070;2023-02-22T00:32:48;4.83;;;3.87;;
4517;SDS011;2271;49.464;11.070;2023-02-22T00:35:15;4.20;;;3.40;;
4517;SDS011;2271;49.464;11.070;2023-02-22T00:37:42;6.23;;;4.13;;
4517;SDS011;2271;49.464;11.070;2023-02-22T00:40:13;4.10;;;3.70;;
4517;SDS011;2271;49.464;11.070;2023-02-22T00:42:41;7.30;;;4.27;;
4517;SDS011;2271;49.464;11.070;2023-02-22T00:45:08;6.30;;;3.73;;
4517;SDS011;2271;49.464;11.070;2023-02-22T00:47:33;4.37;;;3.93;;
4517;SDS011;2271;49.464;11.070;2023-02-22T00:49:59;5.57;;;4.10;;
4517;SDS011;2271;49.464;11.070;2023-02-22T00:52:28;3.53;;;3.23;;
4517;SDS011;2271;49.464;11.070;2023-02-22T00:54:54;6.67;;;3.70;;
4517;SDS011;2271;49.464;11.070;2023-02-22T00:57:21;5.63;;;4.20;;
4517;SDS011;2271;49.464;11.070;2023-02-22T00:59:48;6.87;;;4.13;;
4517;SDS011;2271;49.464;11.070;2023-02-22T01:02:13;6.23;;;3.77;;
4517;SDS011;2271;49.464;11.070;2023-02-22T01:04:39;6.63;;;4.23;;
4517;SDS011;2271;49.464;11.070;2023-02-22T01:07:05;4.93;;;3.53;;
4517;SDS011;2271;49.464;11.070;2023-02-22T01:09:31;7.63;;;4.03;;
4517;SDS011;2271;49.464;11.070;2023-02-22T01:11:57;6.00;;;3.87;;
4517;SDS011;2271;49.464;11.070;2023-02-22T01:14:23;4.33;;;3.73;;
4517;SDS011;2271;49.464;11.070;2023-02-22T01:16:53;5.00;;;3.40;;
4517;SDS011;2271;49.464;11.070;2023-02-22T01:19:20;6.73;;;4.13;;
4517;SDS011;2271;49.464;11.070;2023-02-22T01:21:46;4.40;;;3.83;;
4517;SDS011;2271;49.464;11.070;2023-02-22T01:24:13;6.40;;;3.67;;
4517;SDS011;2271;49.464;11.070;2023-02-22T01:26:43;5.67;;;3.20;;
4517;SDS011;2271;49.464;11.070;2023-02-22T01:29:15;5.00;;;2.80;;
4517;SDS011;2271;49.464;11.070;2023-02-22T01:31:42;8.50;;;3.53;;
4517;SDS011;2271;49.464;11.070;2023-02-22T01:34:15;5.40;;;3.63;;
4517;SDS011;2271;49.464;11.070;2023-02-22T01:36:42;6.33;;;3.53;;
4517;SDS011;2271;49.464;11.070;2023-02-22T01:39:07;5.40;;;3.47;;
4517;SDS011;2271;49.464;11.070;2023-02-22T01:41:34;5.57;;;3.47;;
4517;SDS011;2271;49.464;11.070;2023-02-22T01:44:17;7.63;;;3.53;;
4517;SDS011;2271;49.464;11.070;2023-02-22T01:46:44;6.50;;;3.63;;
4517;SDS011;2271;49.464;11.070;2023-02-22T01:49:09;8.33;;;3.30;;
4517;SDS011;2271;49.464;11.070;2023-02-22T01:51:38;5.40;;;3.77;;
4517;SDS011;2271;49.464;11.070;2023-02-22T01:54:12;4.73;;;3.53;;
4517;SDS011;2271;49.464;11.070;2023-02-22T01:56:53;4.40;;;3.17;;
4517;SDS011;2271;49.464;11.070;2023-02-22T01:59:36;5.13;;;3.37;;
4517;SDS011;2271;49.464;11.070;2023-02-22T02:02:05;6.93;;;3.67;;
4517;SDS011;2271;49.464;11.070;2023-02-22T02:04:31;4.63;;;3.07;;
4517;SDS011;2271;49.464;11.070;2023-02-22T02:06:59;4.93;;;4.17;;
4517;SDS011;2271;49.464;11.070;2023-02-22T02:09:36;4.80;;;3.60;;
4517;SDS011;2271;49.464;11.070;2023-02-22T02:12:15;4.00;;;3.70;;
4517;SDS011;2271;49.464;11.070;2023-02-22T02:14:42;5.23;;;3.87;;
4517;SDS011;2271;49.464;11.070;2023-02-22T02:17:09;4.53;;;3.63;;
4517;SDS011;2271;49.464;11.070;2023-02-22T02:30:47;5.20;;;3.57;;
4517;SDS011;2271;49.464;11.070;2023-02-22T02:41:57;4.70;;;4.00;;
4517;SDS011;2271;49.464;11.070;2023-02-22T02:47:11;6.93;;;4.43;;
4517;SDS011;2271;49.464;11.070;2023-02-22T02:52:32;6.70;;;4.50;;
4517;SDS011;2271;49.464;11.070;2023-02-22T02:54:59;4.90;;;4.40;;
4517;SDS011;2271;49.464;11.070;2023-02-22T02:57:28;5.43;;;4.20;;
4517;SDS011;2271;49.464;11.070;2023-02-22T02:59:53;6.93;;;4.37;;
4517;SDS011;2271;49.464;11.070;2023-02-22T03:02:39;6.73;;;4.23;;
4517;SDS011;2271;49.464;11.070;2023-02-22T03:11:18;6.03;;;4.87;;
4517;SDS011;2271;49.464;11.070;2023-02-22T03:16:18;5.87;;;4.97;;
4517;SDS011;2271;49.464;11.070;2023-02-22T03:27:18;5.40;;;4.47;;
4517;SDS011;2271;49.464;11.070;2023-02-22T03:29:45;5.13;;;4.37;;
4517;SDS011;2271;49.464;11.070;2023-02-22T03:32:15;6.87;;;4.53;;
4517;SDS011;2271;49.464;11.070;2023-02-22T03:35:32;10.70;;;4.27;;
4517;SDS011;2271;49.464;11.070;2023-02-22T03:37:39;7.63;;;4.40;;
4517;SDS011;2271;49.464;11.070;2023-02-22T03:40:12;6.13;;;4.13;;
4517;SDS011;2271;49.464;11.070;2023-02-22T03:42:42;5.03;;;4.00;;
4517;SDS011;2271;49.464;11.070;2023-02-22T03:45:12;5.83;;;3.80;;
4517;SDS011;2271;49.464;11.070;2023-02-22T03:47:43;6.70;;;3.60;;
4517;SDS011;2271;49.464;11.070;2023-02-22T03:50:18;6.13;;;4.10;;
4517;SDS011;2271;49.464;11.070;2023-02-22T03:52:46;6.43;;;3.77;;
4517;SDS011;2271;49.464;11.070;2023-02-22T03:55:12;4.60;;;3.53;;
4517;SDS011;2271;49.464;11.070;2023-02-22T03:57:42;4.43;;;3.90;;
4517;SDS011;2271;49.464;11.070;2023-02-22T04:00:13;8.60;;;3.87;;
4517;SDS011;2271;49.464;11.070;2023-02-22T04:02:42;7.07;;;3.97;;
4517;SDS011;2271;49.464;11.070;2023-02-22T04:05:08;3.80;;;3.20;;
4517;SDS011;2271;49.464;11.070;2023-02-22T04:07:34;6.13;;;3.97;;
4517;SDS011;2271;49.464;11.070;2023-02-22T04:09:59;3.77;;;3.37;;
4517;SDS011;2271;49.464;11.070;2023-02-22T04:12:27;6.87;;;4.00;;
4517;SDS011;2271;49.464;11.070;2023-02-22T04:14:52;6.20;;;3.93;;
4517;SDS011;2271;49.464;11.070;2023-02-22T04:17:18;4.97;;;3.87;;
4517;SDS011;2271;49.464;11.070;2023-02-22T04:19:44;4.37;;;3.50;;
4517;SDS011;2271;49.464;11.070;2023-02-22T04:22:10;5.47;;;3.73;;
4517;SDS011;2271;49.464;11.070;2023-02-22T04:24:36;3.50;;;3.20;;
4517;SDS011;2271;49.464;11.070;2023-02-22T04:27:02;6.17;;;3.77;;
4517;SDS011;2271;49.464;11.070;2023-02-22T04:29:27;4.20;;;3.27;;
4517;SDS011;2271;49.464;11.070;2023-02-22T04:31:53;4.40;;;4.00;;
4517;SDS011;2271;49.464;11.070;2023-02-22T04:34:19;5.47;;;3.90;;
4517;SDS011;2271;49.464;11.070;2023-02-22T04:36:45;5.33;;;4.00;;
4517;SDS011;2271;49.464;11.070;2023-02-22T04:39:11;3.43;;;2.83;;
4517;SDS011;2271;49.464;11.070;2023-02-22T04:41:37;4.73;;;3.57;;
4517;SDS011;2271;49.464;11.070;2023-02-22T04:44:03;4.53;;;3.73;;
4517;SDS011;2271;49.464;11.070;2023-02-22T04:46:28;7.80;;;4.47;;
4517;SDS011;2271;49.464;11.070;2023-02-22T04:48:55;4.73;;;4.10;;
4517;SDS011;2271;49.464;11.070;2023-02-22T04:51:21;5.03;;;3.57;;
4517;SDS011;2271;49.464;11.070;2023-02-22T04:53:47;6.10;;;3.60;;
4517;SDS011;2271;49.464;11.070;2023-02-22T04:56:13;4.53;;;3.83;;
4517;SDS011;2271;49.464;11.070;2023-02-22T04:58:40;4.00;;;3.60;;
4517;SDS011;2271;49.464;11.070;2023-02-22T05:01:06;6.93;;;4.53;;
4517;SDS011;2271;49.464;11.070;2023-02-22T05:03:32;4.73;;;3.70;;
4517;SDS011;2271;49.464;11.070;2023-02-22T05:05:57;8.23;;;3.33;;
4517;SDS011;2271;49.464;11.070;2023-02-22T05:08:23;5.83;;;3.73;;
4517;SDS011;2271;49.464;11.070;2023-02-22T05:10:48;4.03;;;3.63;;
4517;SDS011;2271;49.464;11.070;2023-02-22T05:13:14;6.73;;;3.50;;
4517;SDS011;2271;49.464;11.070;2023-02-22T05:15:40;4.67;;;3.43;;
4517;SDS011;2271;49.464;11.070;2023-02-22T05:18:05;5.13;;;4.10;;
4517;SDS011;2271;49.464;11.070;2023-02-22T05:20:32;4.00;;;3.60;;
4517;SDS011;2271;49.464;11.070;2023-02-22T05:22:59;4.50;;;3.87;;
4517;SDS011;2271;49.464;11.070;2023-02-22T05:25:26;3.90;;;3.50;;
4517;SDS011;2271;49.464;11.070;2023-02-22T05:27:53;6.60;;;3.80;;
4517;SDS011;2271;49.464;11.070;2023-02-22T05:30:28;4.20;;;3.30;;
4517;SDS011;2271;49.464;11.070;2023-02-22T05:32:55;5.57;;;3.67;;
4517;SDS011;2271;49.464;11.070;2023-02-22T05:35:22;5.33;;;3.37;;
4517;SDS011;2271;49.464;11.070;2023-02-22T05:37:49;6.40;;;3.67;;
4517;SDS011;2271;49.464;11.070;2023-02-22T05:40:16;6.27;;;3.67;;
4517;SDS011;2271;49.464;11.070;2023-02-22T05:42:46;3.80;;;3.30;;
4517;SDS011;2271;49.464;11.070;2023-02-22T05:45:13;3.93;;;3.53;;
4517;SDS011;2271;49.464;11.070;2023-02-22T05:47:39;8.43;;;3.03;;
4517;SDS011;2271;49.464;11.070;2023-02-22T05:50:05;4.67;;;3.90;;
4517;SDS011;2271;49.464;11.070;2023-02-22T05:52:32;5.63;;;3.57;;
4517;SDS011;2271;49.464;11.070;2023-02-22T05:54:57;4.93;;;3.80;;
4517;SDS011;2271;49.464;11.070;2023-02-22T05:57:23;4.90;;;4.30;;
4517;SDS011;2271;49.464;11.070;2023-02-22T05:59:49;5.27;;;3.93;;
4517;SDS011;2271;49.464;11.070;2023-02-22T06:02:14;5.10;;;3.87;;
4517;SDS011;2271;49.464;11.070;2023-02-22T06:04:43;6.17;;;3.77;;
4517;SDS011;2271;49.464;11.070;2023-02-22T06:07:09;4.07;;;3.57;;
4517;SDS011;2271;49.464;11.070;2023-02-22T06:09:35;3.10;;;2.77;;
4517;SDS011;2271;49.464;11.070;2023-02-22T06:12:00;6.00;;;3.83;;
4517;SDS011;2271;49.464;11.070;2023-02-22T06:14:26;5.47;;;3.73;;
4517;SDS011;2271;49.464;11.070;2023-02-22T06:16:52;4.47;;;3.30;;
4517;SDS011;2271;49.464;11.070;2023-02-22T06:19:19;6.73;;;3.97;;
4517;SDS011;2271;49.464;11.070;2023-02-22T06:21:51;4.50;;;3.23;;
4517;SDS011;2271;49.464;11.070;2023-02-22T06:24:20;4.40;;;4.00;;
4517;SDS011;2271;49.464;11.070;2023-02-22T06:26:53;6.63;;;4.60;;
4517;SDS011;2271;49.464;11.070;2023-02-22T06:29:20;5.63;;;3.67;;
4517;SDS011;2271;49.464;11.070;2023-02-22T06:31:47;5.07;;;3.67;;
4517;SDS011;2271;49.464;11.070;2023-02-22T06:34:13;3.83;;;3.47;;
4517;SDS011;2271;49.464;11.070;2023-02-22T06:36:39;5.00;;;3.40;;
4517;SDS011;2271;49.464;11.070;2023-02-22T06:39:06;3.73;;;3.03;;
4517;SDS011;2271;49.464;11.070;2023-02-22T06:41:35;8.30;;;3.40;;
4517;SDS011;2271;49.464;11.070;2023-02-22T06:44:02;4.97;;;3.40;;
4517;SDS011;2271;49.464;11.070;2023-02-22T06:46:28;4.63;;;3.27;;
4517;SDS011;2271;49.464;11.070;2023-02-22T06:48:53;5.13;;;2.80;;
4517;SDS011;2271;49.464;11.070;2023-02-22T06:51:19;4.80;;;3.13;;
4517;SDS011;2271;49.464;11.070;2023-02-22T06:53:46;4.73;;;2.90;;
4517;SDS011;2271;49.464;11.070;2023-02-22T06:56:11;3.73;;;3.00;;
4517;SDS011;2271;49.464;11.070;2023-02-22T06:58:37;3.87;;;3.13;;
4517;SDS011;2271;49.464;11.070;2023-02-22T07:01:02;5.27;;;2.90;;
4517;SDS011;2271;49.464;11.070;2023-02-22T07:03:28;4.63;;;3.37;;
4517;SDS011;2271;49.464;11.070;2023-02-22T07:05:54;4.63;;;3.43;;
4517;SDS011;2271;49.464;11.070;2023-02-22T07:08:19;5.80;;;3.53;;
4517;SDS011;2271;49.464;11.070;2023-02-22T07:10:45;4.17;;;3.33;;
4517;SDS011;2271;49.464;11.070;2023-02-22T07:13:10;4.20;;;3.23;;
4517;SDS011;2271;49.464;11.070;2023-02-22T07:15:36;6.97;;;3.73;;
4517;SDS011;2271;49.464;11.070;2023-02-22T07:18:02;4.80;;;3.13;;
4517;SDS011;2271;49.464;11.070;2023-02-22T07:20:28;4.40;;;3.60;;
4517;SDS011;2271;49.464;11.070;2023-02-22T07:22:55;5.00;;;3.70;;
4517;SDS011;2271;49.464;11.070;2023-02-22T07:25:21;4.33;;;3.77;;
4517;SDS011;2271;49.464;11.070;2023-02-22T07:27:47;4.67;;;3.27;;
4517;SDS011;2271;49.464;11.070;2023-02-22T07:30:20;5.33;;;3.40;;
4517;SDS011;2271;49.464;11.070;2023-02-22T07:32:49;3.50;;;3.20;;
4517;SDS011;2271;49.464;11.070;2023-02-22T07:35:19;4.63;;;3.57;;
4517;SDS011;2271;49.464;11.070;2023-02-22T07:37:47;6.30;;;4.27;;
4517;SDS011;2271;49.464;11.070;2023-02-22T07:40:13;3.87;;;3.47;;
4517;SDS011;2271;49.464;11.070;2023-02-22T07:43:39;4.83;;;3.50;;
4517;SDS011;2271;49.464;11.070;2023-02-22T07:45:38;7.97;;;4.27;;
4517;SDS011;2271;49.464;11.070;2023-02-22T07:48:05;4.87;;;3.93;;
4517;SDS011;2271;49.464;11.070;2023-02-22T07:50:31;4.27;;;3.87;;
4517;SDS011;2271;49.464;11.070;2023-02-22T07:53:00;4.80;;;4.23;;
4517;SDS011;2271;49.464;11.070;2023-02-22T07:55:28;6.23;;;3.93;;
4517;SDS011;2271;49.464;11.070;2023-02-22T07:57:56;8.20;;;4.00;;
4517;SDS011;2271;49.464;11.070;2023-02-22T08:00:44;5.47;;;4.10;;
4517;SDS011;2271;49.464;11.070;2023-02-22T08:03:12;4.93;;;3.90;;
4517;SDS011;2271;49.464;11.070;2023-02-22T08:05:40;7.03;;;3.47;;
4517;SDS011;2271;49.464;11.070;2023-02-22T08:08:08;6.20;;;4.47;;
4517;SDS011;2271;49.464;11.070;2023-02-22T08:10:34;6.37;;;4.07;;
4517;SDS011;2271;49.464;11.070;2023-02-22T08:13:00;5.00;;;3.73;;
4517;SDS011;2271;49.464;11.070;2023-02-22T08:15:28;6.67;;;4.03;;
4517;SDS011;2271;49.464;11.070;2023-02-22T08:17:59;4.07;;;3.67;;
4517;SDS011;2271;49.464;11.070;2023-02-22T08:20:25;6.97;;;4.37;;
4517;SDS011;2271;49.464;11.070;2023-02-22T08:22:52;8.87;;;4.93;;
4517;SDS011;2271;49.464;11.070;2023-02-22T08:25:19;7.30;;;4.30;;
4517;SDS011;2271;49.464;11.070;2023-02-22T08:27:46;7.50;;;4.87;;
4517;SDS011;2271;49.464;11.070;2023-02-22T08:30:13;6.37;;;4.37;;
4517;SDS011;2271;49.464;11.070;2023-02-22T08:32:40;8.33;;;4.53;;
4517;SDS011;2271;49.464;11.070;2023-02-22T08:35:06;6.67;;;4.87;;
4517;SDS011;2271;49.464;11.070;2023-02-22T08:37:32;6.70;;;4.63;;
4517;SDS011;2271;49.464;11.070;2023-02-22T08:39:57;9.10;;;6.10;;
4517;SDS011;2271;49.464;11.070;2023-02-22T08:42:23;7.13;;;5.13;;
4517;SDS011;2271;49.464;11.070;2023-02-22T08:44:49;8.47;;;5.63;;
4517;SDS011;2271;49.464;11.070;2023-02-22T08:47:15;8.90;;;5.63;;
4517;SDS011;2271;49.464;11.070;2023-02-22T08:49:40;6.30;;;5.10;;
4517;SDS011;2271;49.464;11.070;2023-02-22T08:52:06;7.67;;;5.73;;
4517;SDS011;2271;49.464;11.070;2023-02-22T08:54:32;8.20;;;6.73;;
4517;SDS011;2271;49.464;11.070;2023-02-22T08:56:58;11.63;;;6.50;;
4517;SDS011;2271;49.464;11.070;2023-02-22T08:59:23;8.63;;;6.23;;
4517;SDS011;2271;49.464;11.070;2023-02-22T09:01:49;7.60;;;6.00;;
4517;SDS011;2271;49.464;11.070;2023-02-22T09:04:15;12.70;;;6.27;;
4517;SDS011;2271;49.464;11.070;2023-02-22T09:06:41;13.33;;;7.27;;
4517;SDS011;2271;49.464;11.070;2023-02-22T09:09:08;12.33;;;8.00;;
4517;SDS011;2271;49.464;11.070;2023-02-22T09:11:33;9.80;;;7.13;;
4517;SDS011;2271;49.464;11.070;2023-02-22T09:13:59;14.80;;;7.43;;
4517;SDS011;2271;49.464;11.070;2023-02-22T09:16:25;19.10;;;9.40;;
4517;SDS011;2271;49.464;11.070;2023-02-22T09:18:50;18.40;;;11.30;;
4517;SDS011;2271;49.464;11.070;2023-02-22T09:21:16;18.07;;;9.33;;
4517;SDS011;2271;49.464;11.070;2023-02-22T09:23:41;13.43;;;7.57;;
4517;SDS011;2271;49.464;11.070;2023-02-22T09:26:07;11.93;;;7.83;;
4517;SDS011;2271;49.464;11.070;2023-02-22T09:28:34;13.10;;;7.50;;
4517;SDS011;2271;49.464;11.070;2023-02-22T09:31:00;10.70;;;7.23;;
4517;SDS011;2271;49.464;11.070;2023-02-22T09:33:25;9.83;;;7.70;;
4517;SDS011;2271;49.464;11.070;2023-02-22T09:35:51;7.90;;;6.73;;
4517;SDS011;2271;49.464;11.070;2023-02-22T09:38:18;9.27;;;6.83;;
4517;SDS011;2271;49.464;11.070;2023-02-22T09:40:50;7.20;;;6.30;;
4517;SDS011;2271;49.464;11.070;2023-02-22T09:49:05;7.87;;;6.20;;
4517;SDS011;2271;49.464;11.070;2023-02-22T09:51:42;14.17;;;7.37;;
4517;SDS011;2271;49.464;11.070;2023-02-22T09:54:22;8.50;;;6.93;;
4517;SDS011;2271;49.464;11.070;2023-02-22T09:56:55;6.93;;;6.23;;
4517;SDS011;2271;49.464;11.070;2023-02-22T09:59:26;10.73;;;6.20;;
4517;SDS011;2271;49.464;11.070;2023-02-22T10:02:17;12.37;;;6.83;;
4517;SDS011;2271;49.464;11.070;2023-02-22T10:05:01;8.07;;;6.13;;
4517;SDS011;2271;49.464;11.070;2023-02-22T10:10:25;10.53;;;6.33;;
4517;SDS011;2271;49.464;11.070;2023-02-22T10:15:39;8.03;;;6.50;;
4517;SDS011;2271;49.464;11.070;2023-02-22T10:26:14;7.80;;;6.00;;
4517;SDS011;2271;49.464;11.070;2023-02-22T10:28:46;8.75;;;5.95;;
4517;SDS011;2271;49.464;11.070;2023-02-22T10:31:43;7.60;;;5.93;;
4517;SDS011;2271;49.464;11.070;2023-02-22T10:34:15;10.43;;;5.70;;
4517;SDS011;2271;49.464;11.070;2023-02-22T10:36:45;10.60;;;5.88;;
4517;SDS011;2271;49.464;11.070;2023-02-22T10:39:26;8.02;;;5.97;;
4517;SDS011;2271;49.464;11.070;2023-02-22T10:41:55;8.13;;;5.95;;
4517;SDS011;2271;49.464;11.070;2023-02-22T10:44:29;6.80;;;5.40;;
4517;SDS011;2271;49.464;11.070;2023-02-22T10:46:57;11.23;;;6.05;;
4517;SDS011;2271;49.464;11.070;2023-02-22T10:49:25;7.95;;;5.70;;
4517;SDS011;2271;49.464;11.070;2023-02-22T10:51:58;8.55;;;5.93;;
4517;SDS011;2271;49.464;11.070;2023-02-22T10:54:35;9.07;;;5.80;;
4517;SDS011;2271;49.464;11.070;2023-02-22T10:57:05;12.77;;;5.65;;
4517;SDS011;2271;49.464;11.070;2023-02-22T10:59:33;10.23;;;6.38;;
4517;SDS011;2271;49.464;11.070;2023-02-22T11:02:07;6.23;;;5.63;;
4517;SDS011;2271;49.464;11.070;2023-02-22T11:04:46;7.63;;;5.85;;
4517;SDS011;2271;49.464;11.070;2023-02-22T11:07:24;6.97;;;5.10;;
4517;SDS011;2271;49.464;11.070;2023-02-22T11:09:59;9.27;;;5.45;;
4517;SDS011;2271;49.464;11.070;2023-02-22T11:12:34;7.85;;;4.90;;
4517;SDS011;2271;49.464;11.070;2023-02-22T11:15:18;5.55;;;4.38;;
4517;SDS011;2271;49.464;11.070;2023-02-22T11:17:47;5.72;;;4.43;;
4517;SDS011;2271;49.464;11.070;2023-02-22T11:20:20;6.35;;;4.70;;
4517;SDS011;2271;49.464;11.070;2023-02-22T11:22:52;7.95;;;5.13;;
4517;SDS011;2271;49.464;11.070;2023-02-22T11:25:26;7.40;;;4.78;;
4517;SDS011;2271;49.464;11.070;2023-02-22T11:27:54;8.35;;;5.65;;
4517;SDS011;2271;49.464;11.070;2023-02-22T11:30:31;8.02;;;5.03;;
4517;SDS011;2271;49.464;11.070;2023-02-22T11:33:02;7.50;;;5.32;;
4517;SDS011;2271;49.464;11.070;2023-02-22T11:40:45;5.28;;;4.38;;
4517;SDS011;2271;49.464;11.070;2023-02-22T11:43:16;5.63;;;3.40;;
4517;SDS011;2271;49.464;11.070;2023-02-22T11:48:56;7.47;;;4.30;;
4517;SDS011;2271;49.464;11.070;2023-02-22T11:54:05;5.65;;;3.28;;
4517;SDS011;2271;49.464;11.070;2023-02-22T11:56:50;5.13;;;3.03;;
4517;SDS011;2271;49.464;11.070;2023-02-22T12:07:38;6.35;;;3.67;;
4517;SDS011;2271;49.464;11.070;2023-02-22T12:13:28;4.18;;;3.25;;
4517;SDS011;2271;49.464;11.070;2023-02-22T12:16:05;6.07;;;4.05;;
4517;SDS011;2271;49.464;11.070;2023-02-22T12:21:53;5.28;;;4.40;;
4517;SDS011;2271;49.464;11.070;2023-02-22T12:24:35;7.47;;;5.05;;
4517;SDS011;2271;49.464;11.070;2023-02-22T12:27:08;7.65;;;4.68;;
4517;SDS011;2271;49.464;11.070;2023-02-22T12:29:43;8.80;;;4.85;;
4517;SDS011;2271;49.464;11.070;2023-02-22T12:32:19;6.47;;;5.05;;
4517;SDS011;2271;49.464;11.070;2023-02-22T12:37:52;6.97;;;4.57;;
4517;SDS011;2271;49.464;11.070;2023-02-22T12:40:47;4.60;;;3.65;;
4517;SDS011;2271;49.464;11.070;2023-02-22T12:43:41;6.88;;;3.97;;
4517;SDS011;2271;49.464;11.070;2023-02-22T12:48:59;7.88;;;4.68;;
4517;SDS011;2271;49.464;11.070;2023-02-22T12:54:20;4.90;;;3.75;;
4517;SDS011;2271;49.464;11.070;2023-02-22T12:56:52;5.15;;;3.38;;
4517;SDS011;2271;49.464;11.070;2023-02-22T12:59:48;7.13;;;3.35;;
4517;SDS011;2271;49.464;11.070;2023-02-22T13:02:44;3.88;;;3.55;;
4517;SDS011;2271;49.464;11.070;2023-02-22T13:05:16;6.72;;;3.78;;
4517;SDS011;2271;49.464;11.070;2023-02-22T13:07:48;5.97;;;3.85;;
4517;SDS011;2271;49.464;11.070;2023-02-22T13:13:31;7.63;;;3.90;;
4517;SDS011;2271;49.464;11.070;2023-02-22T13:21:30;3.35;;;2.78;;
4517;SDS011;2271;49.464;11.070;2023-02-22T13:30:12;3.40;;;3.10;;
4517;SDS011;2271;49.464;11.070;2023-02-22T13:32:49;5.10;;;3.10;;
4517;SDS011;2271;49.464;11.070;2023-02-22T13:56:49;5.68;;;2.60;;
4517;SDS011;2271;49.464;11.070;2023-02-22T13:59:30;2.50;;;2.22;;
4517;SDS011;2271;49.464;11.070;2023-02-22T14:01:58;4.32;;;2.88;;
4517;SDS011;2271;49.464;11.070;2023-02-22T14:06:57;3.10;;;2.40;;
4517;SDS011;2271;49.464;11.070;2023-02-22T14:17:37;5.47;;;2.63;;
4517;SDS011;2271;49.464;11.070;2023-02-22T14:20:24;6.65;;;2.75;;
4517;SDS011;2271;49.464;11.070;2023-02-22T14:25:54;9.00;;;3.00;;
4517;SDS011;2271;49.464;11.070;2023-02-22T14:28:37;5.93;;;2.83;;
4517;SDS011;2271;49.464;11.070;2023-02-22T14:31:21;4.18;;;2.33;;
4517;SDS011;2271;49.464;11.070;2023-02-22T14:34:08;4.13;;;1.77;;
4517;SDS011;2271;49.464;11.070;2023-02-22T14:39:42;10.93;;;2.65;;
4517;SDS011;2271;49.464;11.070;2023-02-22T14:48:17;4.13;;;2.58;;
4517;SDS011;2271;49.464;11.070;2023-02-22T14:56:13;3.70;;;1.83;;
4517;SDS011;2271;49.464;11.070;2023-02-22T14:58:52;5.88;;;1.85;;
4517;SDS011;2271;49.464;11.070;2023-02-22T15:01:33;4.00;;;1.77;;
4517;SDS011;2271;49.464;11.070;2023-02-22T15:06:41;4.13;;;3.00;;
4517;SDS011;2271;49.464;11.070;2023-02-22T15:09:10;3.97;;;2.72;;
4517;SDS011;2271;49.464;11.070;2023-02-22T15:14:11;4.13;;;2.67;;
4517;SDS011;2271;49.464;11.070;2023-02-22T15:16:48;3.80;;;2.38;;
4517;SDS011;2271;49.464;11.070;2023-02-22T15:19:16;2.53;;;2.20;;
4517;SDS011;2271;49.464;11.070;2023-02-22T15:21:49;3.35;;;2.20;;
4517;SDS011;2271;49.464;11.070;2023-02-22T15:24:22;5.40;;;2.50;;
4517;SDS011;2271;49.464;11.070;2023-02-22T15:26:50;4.38;;;2.60;;
4517;SDS011;2271;49.464;11.070;2023-02-22T15:31:43;5.50;;;2.78;;
4517;SDS011;2271;49.464;11.070;2023-02-22T15:36:42;4.55;;;2.35;;
4517;SDS011;2271;49.464;11.070;2023-02-22T15:39:24;5.78;;;3.45;;
4517;SDS011;2271;49.464;11.070;2023-02-22T15:44:47;6.07;;;2.97;;
4517;SDS011;2271;49.464;11.070;2023-02-22T15:47:26;6.80;;;2.80;;
4517;SDS011;2271;49.464;11.070;2023-02-22T15:55:17;5.13;;;2.60;;
4517;SDS011;2271;49.464;11.070;2023-02-22T15:57:43;7.70;;;3.15;;
4517;SDS011;2271;49.464;11.070;2023-02-22T16:00:23;10.38;;;3.00;;
4517;SDS011;2271;49.464;11.070;2023-02-22T16:03:00;6.35;;;2.85;;
4517;SDS011;2271;49.464;11.070;2023-02-22T16:05:49;3.17;;;2.50;;
4517;SDS011;2271;49.464;11.070;2023-02-22T16:08:17;4.88;;;2.60;;
4517;SDS011;2271;49.464;11.070;2023-02-22T16:13:37;3.17;;;2.25;;
4517;SDS011;2271;49.464;11.070;2023-02-22T16:18:41;3.90;;;2.58;;
4517;SDS011;2271;49.464;11.070;2023-02-22T16:21:12;3.85;;;1.95;;
4517;SDS011;2271;49.464;11.070;2023-02-22T16:26:26;3.75;;;2.47;;
4517;SDS011;2271;49.464;11.070;2023-02-22T16:28:56;3.65;;;2.47;;
4517;SDS011;2271;49.464;11.070;2023-02-22T16:31:24;4.18;;;1.92;;
4517;SDS011;2271;49.464;11.070;2023-02-22T16:33:52;3.25;;;1.98;;
4517;SDS011;2271;49.464;11.070;2023-02-22T16:36:18;3.33;;;2.20;;
4517;SDS011;2271;49.464;11.070;2023-02-22T16:38:45;4.22;;;2.40;;
4517;SDS011;2271;49.464;11.070;2023-02-22T16:41:13;3.50;;;2.60;;
4517;SDS011;2271;49.464;11.070;2023-02-22T16:43:44;4.45;;;2.00;;
4517;SDS011;2271;49.464;11.070;2023-02-22T16:46:15;5.78;;;2.70;;
4517;SDS011;2271;49.464;11.070;2023-02-22T16:48:43;5.85;;;2.35;;
4517;SDS011;2271;49.464;11.070;2023-02-22T16:51:23;6.20;;;3.40;;
4517;SDS011;2271;49.464;11.070;2023-02-22T16:53:51;7.45;;;3.40;;
4517;SDS011;2271;49.464;11.070;2023-02-22T16:56:19;7.43;;;3.80;;
4517;SDS011;2271;49.464;11.070;2023-02-22T16:58:53;6.38;;;3.05;;
4517;SDS011;2271;49.464;11.070;2023-02-22T17:01:19;5.60;;;3.90;;
4517;SDS011;2271;49.464;11.070;2023-02-22T17:03:47;8.90;;;4.57;;
4517;SDS011;2271;49.464;11.070;2023-02-22T17:06:15;9.93;;;4.47;;
4517;SDS011;2271;49.464;11.070;2023-02-22T17:08:40;9.60;;;5.03;;
4517;SDS011;2271;49.464;11.070;2023-02-22T17:11:07;10.60;;;4.78;;
4517;SDS011;2271;49.464;11.070;2023-02-22T17:13:35;5.50;;;4.15;;
4517;SDS011;2271;49.464;11.070;2023-02-22T17:16:01;5.10;;;3.55;;
4517;SDS011;2271;49.464;11.070;2023-02-22T17:18:27;9.85;;;3.60;;
4517;SDS011;2271;49.464;11.070;2023-02-22T17:20:58;10.43;;;3.83;;
4517;SDS011;2271;49.464;11.070;2023-02-22T17:23:24;8.52;;;3.78;;
4517;SDS011;2271;49.464;11.070;2023-02-22T17:25:55;8.30;;;4.35;;
4517;SDS011;2271;49.464;11.070;2023-02-22T17:28:29;8.13;;;4.57;;
4517;SDS011;2271;49.464;11.070;2023-02-22T17:30:56;12.63;;;4.93;;
4517;SDS011;2271;49.464;11.070;2023-02-22T17:33:25;7.80;;;4.95;;
4517;SDS011;2271;49.464;11.070;2023-02-22T17:35:52;11.13;;;5.20;;
4517;SDS011;2271;49.464;11.070;2023-02-22T17:38:19;7.45;;;3.70;;
4517;SDS011;2271;49.464;11.070;2023-02-22T17:40:46;4.03;;;3.65;;
4517;SDS011;2271;49.464;11.070;2023-02-22T17:43:18;6.20;;;3.50;;
4517;SDS011;2271;49.464;11.070;2023-02-22T17:45:44;3.33;;;2.05;;
4517;SDS011;2271;49.464;11.070;2023-02-22T17:48:10;7.20;;;3.40;;
4517;SDS011;2271;49.464;11.070;2023-02-22T17:50:38;13.98;;;4.30;;
4517;SDS011;2271;49.464;11.070;2023-02-22T17:53:05;3.05;;;2.63;;
4517;SDS011;2271;49.464;11.070;2023-02-22T17:55:31;4.63;;;2.65;;
4517;SDS011;2271;49.464;11.070;2023-02-22T17:57:58;10.27;;;4.00;;
4517;SDS011;2271;49.464;11.070;2023-02-22T18:00:25;9.88;;;4.18;;
4517;SDS011;2271;49.464;11.070;2023-02-22T18:02:57;3.58;;;2.78;;
4517;SDS011;2271;49.464;11.070;2023-02-22T18:05:40;4.53;;;2.40;;
4517;SDS011;2271;49.464;11.070;2023-02-22T18:08:06;4.38;;;2.90;;
4517;SDS011;2271;49.464;11.070;2023-02-22T18:10:32;2.55;;;2.33;;
4517;SDS011;2271;49.464;11.070;2023-02-22T18:12:58;4.03;;;2.22;;
4517;SDS011;2271;49.464;11.070;2023-02-22T18:15:26;5.20;;;2.25;;
4517;SDS011;2271;49.464;11.070;2023-02-22T18:17:59;3.55;;;2.53;;
4517;SDS011;2271;49.464;11.070;2023-02-22T18:20:26;2.53;;;2.10;;
4517;SDS011;2271;49.464;11.070;2023-02-22T18:22:56;6.78;;;2.90;;